createdAt,value
2023-05-01T00:02:14.819Z,0.9
2023-05-01T00:05:14.806Z,0.9
2023-05-01T00:08:14.829Z,0.9
2023-05-01T00:11:14.817Z,0.8
2023-05-01T00:14:14.814Z,0.8
2023-05-01T00:17:14.824Z,0.8
2023-05-01T00:20:14.822Z,0.7
2023-05-01T00:23:14.843Z,0.5
2023-05-01T00:26:14.829Z,0.5
2023-05-01T00:29:14.835Z,0.5
2023-05-01T00:32:14.939Z,0.4
2023-05-01T00:35:14.847Z,0.3
2023-05-01T00:38:14.887Z,0.3
2023-05-01T00:41:14.849Z,0.4
2023-05-01T00:44:14.862Z,0.5
2023-05-01T00:47:14.852Z,0.6
2023-05-01T00:50:14.856Z,0.6
2023-05-01T00:53:14.872Z,0.6
2023-05-01T00:56:15.022Z,0.5
2023-05-01T00:59:14.890Z,0.4
2023-05-01T01:02:14.892Z,0.4
2023-05-01T01:05:14.896Z,0.5
2023-05-01T01:08:14.906Z,0.5
2023-05-01T01:11:14.895Z,0.6
2023-05-01T01:14:14.887Z,0.5
2023-05-01T01:17:14.944Z,0.5
2023-05-01T01:20:14.919Z,0.4
2023-05-01T01:23:14.918Z,0.4
2023-05-01T01:26:14.923Z,0.5
2023-05-01T01:29:14.931Z,0.5
2023-05-01T01:32:14.926Z,0.5
2023-05-01T01:35:14.951Z,0.5
2023-05-01T01:38:14.953Z,0.4
2023-05-01T01:41:14.937Z,0.4
2023-05-01T01:44:14.933Z,0.4
2023-05-01T01:47:14.957Z,0.4
2023-05-01T01:50:14.963Z,0.4
2023-05-01T01:53:14.968Z,0.4
2023-05-01T01:56:14.965Z,0.4
2023-05-01T01:59:14.980Z,0.4
2023-05-01T02:02:15.017Z,0.3
2023-05-01T02:05:14.970Z,0.4
2023-05-01T02:08:14.981Z,0.3
2023-05-01T02:11:14.980Z,0.2
2023-05-01T02:14:14.979Z,0.3
2023-05-01T02:17:14.995Z,0.3
2023-05-01T02:20:14.998Z,0.4
2023-05-01T02:23:15.025Z,0.4
2023-05-01T02:26:15.015Z,0.2
2023-05-01T02:29:14.998Z,0.1
2023-05-01T02:32:15.021Z,0.1
2023-05-01T02:35:15.007Z,0.1
2023-05-01T02:38:15.052Z,0
2023-05-01T02:41:15.032Z,0
2023-05-01T02:44:15.018Z,-0.1
2023-05-01T02:47:15.069Z,-0.1
2023-05-01T02:50:15.057Z,-0.1
2023-05-01T02:53:15.056Z,-0.1
2023-05-01T02:56:15.051Z,-0.1
2023-05-01T02:59:15.055Z,-0.1
2023-05-01T03:02:15.052Z,-0.1
2023-05-01T03:05:15.068Z,-0.1
2023-05-01T03:08:15.103Z,-0.1
2023-05-01T03:11:15.088Z,-0.2
2023-05-01T03:14:15.083Z,-0.3
2023-05-01T03:17:15.077Z,-0.3
2023-05-01T03:20:15.099Z,-0.3
2023-05-01T03:23:15.103Z,-0.3
2023-05-01T03:26:15.117Z,-0.2
2023-05-01T03:29:15.108Z,-0.2
2023-05-01T03:32:15.198Z,-0.2
2023-05-01T03:35:15.119Z,-0.1
2023-05-01T03:38:15.136Z,-0.1
2023-05-01T03:41:15.125Z,-0.1
2023-05-01T03:44:15.112Z,-0.1
2023-05-01T03:47:15.121Z,-0.1
2023-05-01T03:50:15.126Z,0
2023-05-01T03:53:15.137Z,0
2023-05-01T03:56:15.140Z,0
2023-05-01T03:59:15.146Z,0.1
2023-05-01T04:02:15.187Z,0.1
2023-05-01T04:05:15.173Z,0.2
2023-05-01T04:08:15.166Z,0.2
2023-05-01T04:11:15.164Z,0.3
2023-05-01T04:14:15.163Z,0.3
2023-05-01T04:17:15.176Z,0.4
2023-05-01T04:20:15.179Z,0.5
2023-05-01T04:23:15.198Z,0.5
2023-05-01T04:26:15.184Z,0.6
2023-05-01T04:29:15.190Z,0.6
2023-05-01T04:32:15.198Z,0.7
2023-05-01T04:35:15.200Z,0.8
2023-05-01T04:38:15.222Z,0.8
2023-05-01T04:41:15.206Z,0.8
2023-05-01T04:44:15.228Z,0.9
2023-05-01T04:47:15.220Z,0.9
2023-05-01T04:50:15.244Z,1
2023-05-01T04:53:15.221Z,1
2023-05-01T04:56:15.217Z,1.1
2023-05-01T04:59:15.218Z,1.2
2023-05-01T05:02:15.251Z,1.3
2023-05-01T05:05:15.234Z,1.3
2023-05-01T05:08:15.248Z,1.4
2023-05-01T05:11:15.249Z,1.5
2023-05-01T05:14:15.247Z,1.5
2023-05-01T05:17:15.257Z,1.5
2023-05-01T05:20:15.271Z,1.6
2023-05-01T05:23:15.269Z,1.7
2023-05-01T05:26:15.270Z,1.7
2023-05-01T05:29:15.268Z,1.7
2023-05-01T05:32:15.314Z,1.8
2023-05-01T05:35:15.280Z,1.9
2023-05-01T05:38:15.298Z,1.9
2023-05-01T05:41:15.359Z,2
2023-05-01T05:44:15.303Z,2.2
2023-05-01T05:47:15.294Z,2.4
2023-05-01T05:50:15.306Z,2.6
2023-05-01T05:53:15.374Z,2.6
2023-05-01T05:56:15.304Z,2.7
2023-05-01T05:59:17.255Z,2.8
2023-05-01T06:02:15.351Z,2.8
2023-05-01T06:05:15.356Z,3
2023-05-01T06:08:15.340Z,3.1
2023-05-01T06:11:15.339Z,3
2023-05-01T06:14:15.348Z,3.1
2023-05-01T06:17:15.346Z,3.2
2023-05-01T06:20:15.355Z,3.5
2023-05-01T06:23:15.372Z,3.7
2023-05-01T06:26:15.370Z,3.9
2023-05-01T06:29:15.375Z,3.9
2023-05-01T06:32:15.362Z,3.9
2023-05-01T06:35:15.370Z,4
2023-05-01T06:38:15.392Z,4.1
2023-05-01T06:41:15.379Z,4.2
2023-05-01T06:44:15.382Z,4.2
2023-05-01T06:47:15.403Z,4.3
2023-05-01T06:50:15.423Z,4.5
2023-05-01T06:53:15.412Z,4.5
2023-05-01T06:56:15.402Z,4.7
2023-05-01T06:59:15.418Z,4.7
2023-05-01T07:02:15.440Z,4.6
2023-05-01T07:05:15.422Z,4.3
2023-05-01T07:08:15.437Z,4.5
2023-05-01T07:11:15.418Z,4.4
2023-05-01T07:14:15.423Z,4.5
2023-05-01T07:17:15.426Z,4.6
2023-05-01T07:20:15.601Z,4.8
2023-05-01T07:23:15.458Z,4.9
2023-05-01T07:26:15.443Z,5.1
2023-05-01T07:29:15.444Z,5.3
2023-05-01T07:32:15.492Z,5.3
2023-05-01T07:35:15.468Z,5.2
2023-05-01T07:38:15.471Z,5.3
2023-05-01T07:41:15.462Z,5.3
2023-05-01T07:44:15.472Z,5.5
2023-05-01T07:47:15.490Z,5.3
2023-05-01T07:50:15.466Z,5.3
2023-05-01T07:53:15.489Z,5.1
2023-05-01T07:56:15.480Z,4.8
2023-05-01T07:59:15.485Z,4.4
2023-05-01T08:02:15.516Z,4.4
2023-05-01T08:05:15.506Z,4.3
2023-05-01T08:08:15.529Z,4.7
2023-05-01T08:11:15.510Z,5
2023-05-01T08:14:15.504Z,5
2023-05-01T08:17:15.517Z,4.9
2023-05-01T08:20:15.532Z,4.7
2023-05-01T08:23:15.548Z,4.8
2023-05-01T08:26:15.524Z,4.9
2023-05-01T08:29:15.532Z,4.2
2023-05-01T08:32:15.539Z,4.1
2023-05-01T08:35:15.545Z,4
2023-05-01T08:38:15.550Z,4.1
2023-05-01T08:41:15.537Z,4.2
2023-05-01T08:44:15.551Z,4.6
2023-05-01T08:47:15.554Z,4.3
2023-05-01T08:50:15.548Z,4.9
2023-05-01T08:53:15.564Z,4.6
2023-05-01T08:56:15.552Z,4.6
2023-05-01T08:59:15.568Z,4.3
2023-05-01T09:02:15.548Z,4.5
2023-05-01T09:05:15.561Z,4.5
2023-05-01T09:08:15.571Z,4.4
2023-05-01T09:11:15.558Z,4.4
2023-05-01T09:14:15.568Z,4.3
2023-05-01T09:17:15.582Z,4.3
2023-05-01T09:20:15.586Z,3.9
2023-05-01T09:23:15.613Z,4.1
2023-05-01T09:26:15.600Z,4
2023-05-01T09:29:15.597Z,4.1
2023-05-01T09:32:15.675Z,4.2
2023-05-01T09:35:15.625Z,4.6
2023-05-01T09:38:15.643Z,4.8
2023-05-01T09:41:15.647Z,4.7
2023-05-01T09:44:15.657Z,4.8
2023-05-01T09:47:15.662Z,5.1
2023-05-01T09:50:15.658Z,4.9
2023-05-01T09:53:15.676Z,5.1
2023-05-01T09:56:15.673Z,4.8
2023-05-01T09:59:15.700Z,4.9
2023-05-01T10:02:15.731Z,4.9
2023-05-01T10:05:15.696Z,5.2
2023-05-01T10:08:15.703Z,5.2
2023-05-01T10:11:15.709Z,5.1
2023-05-01T10:14:15.703Z,5.2
2023-05-01T10:17:15.829Z,5.4
2023-05-01T10:20:15.713Z,5.1
2023-05-01T10:23:15.721Z,5.7
2023-05-01T10:26:15.708Z,5.3
2023-05-01T10:29:15.714Z,5.1
2023-05-01T10:32:15.719Z,5.5
2023-05-01T10:35:15.716Z,6
2023-05-01T10:38:15.731Z,5.8
2023-05-01T10:41:15.721Z,6.3
2023-05-01T10:44:15.729Z,5.9
2023-05-01T10:47:15.725Z,5.8
2023-05-01T10:50:16.114Z,5.8
2023-05-01T10:53:15.745Z,5.8
2023-05-01T10:56:15.737Z,5.9
2023-05-01T10:59:15.774Z,5.6
2023-05-01T11:02:15.871Z,5.8
2023-05-01T11:05:16.367Z,5
2023-05-01T11:08:15.777Z,5.4
2023-05-01T11:11:15.769Z,5.6
2023-05-01T11:14:15.768Z,5.8
2023-05-01T11:17:15.781Z,5.9
2023-05-01T11:20:15.780Z,5.8
2023-05-01T11:23:15.799Z,5.5
2023-05-01T11:26:15.795Z,5.5
2023-05-01T11:29:15.799Z,5.9
2023-05-01T11:32:15.957Z,5.6
2023-05-01T11:35:15.806Z,6
2023-05-01T11:38:15.824Z,5.9
2023-05-01T11:41:15.816Z,5.9
2023-05-01T11:44:15.890Z,5.6
2023-05-01T11:47:15.832Z,5.9
2023-05-01T11:50:15.840Z,6
2023-05-01T11:53:16.043Z,6.2
2023-05-01T11:56:23.329Z,5.8
2023-05-01T11:59:15.880Z,6.2
2023-05-01T12:02:15.874Z,6.3
2023-05-01T12:05:15.858Z,6
2023-05-01T12:08:15.862Z,6.3
2023-05-01T12:11:15.854Z,6
2023-05-01T12:14:15.858Z,6.2
2023-05-01T12:17:15.947Z,6
2023-05-01T12:20:15.860Z,6.1
2023-05-01T12:23:15.880Z,6.2
2023-05-01T12:26:15.871Z,6.1
2023-05-01T12:29:15.870Z,5.9
2023-05-01T12:32:15.872Z,6.2
2023-05-01T12:35:15.900Z,6.2
2023-05-01T12:38:15.891Z,6.5
2023-05-01T12:41:15.884Z,6.6
2023-05-01T12:44:15.898Z,6
2023-05-01T12:47:15.906Z,6.2
2023-05-01T12:50:15.902Z,5.9
2023-05-01T12:53:15.920Z,6.1
2023-05-01T12:56:15.904Z,6.3
2023-05-01T12:59:15.906Z,6.5
2023-05-01T13:02:16.369Z,6.2
2023-05-01T13:05:15.914Z,6.1
2023-05-01T13:08:15.919Z,6.3
2023-05-01T13:11:15.920Z,6.2
2023-05-01T13:14:15.928Z,6
2023-05-01T13:17:15.936Z,5.2
2023-05-01T13:20:15.939Z,5.2
2023-05-01T13:23:15.953Z,5.7
2023-05-01T13:26:15.945Z,5.8
2023-05-01T13:29:15.967Z,5.8
2023-05-01T13:32:16.083Z,5.8
2023-05-01T13:35:15.964Z,5.6
2023-05-01T13:38:15.974Z,5.7
2023-05-01T13:41:15.969Z,5.8
2023-05-01T13:44:15.970Z,5.9
2023-05-01T13:47:15.972Z,5.8
2023-05-01T13:50:15.981Z,6.1
2023-05-01T13:53:15.994Z,6.1
2023-05-01T13:56:15.983Z,5.5
2023-05-01T13:59:15.984Z,6.2
2023-05-01T14:02:16.019Z,5.7
2023-05-01T14:05:15.993Z,5.8
2023-05-01T14:08:16.018Z,6.3
2023-05-01T14:11:16.099Z,5.6
2023-05-01T14:14:16.017Z,6.1
2023-05-01T14:17:16.106Z,6.5
2023-05-01T14:20:16.017Z,6.5
2023-05-01T14:23:16.034Z,6
2023-05-01T14:26:16.023Z,6
2023-05-01T14:29:16.029Z,6
2023-05-01T14:32:16.045Z,5.8
2023-05-01T14:35:16.033Z,5.6
2023-05-01T14:38:16.041Z,5.9
2023-05-01T14:41:16.051Z,5.6
2023-05-01T14:44:16.079Z,5.7
2023-05-01T14:47:16.057Z,5.9
2023-05-01T14:50:16.062Z,5.9
2023-05-01T14:53:16.066Z,5.6
2023-05-01T14:56:16.069Z,5.9
2023-05-01T14:59:16.066Z,6.3
2023-05-01T15:02:16.104Z,6.3
2023-05-01T15:05:16.122Z,6.1
2023-05-01T15:08:16.080Z,5.9
2023-05-01T15:11:16.085Z,6
2023-05-01T15:14:16.091Z,5.9
2023-05-01T15:17:16.090Z,6.2
2023-05-01T15:20:16.106Z,6
2023-05-01T15:23:16.094Z,6.2
2023-05-01T15:26:16.106Z,6.3
2023-05-01T15:29:16.101Z,6.4
2023-05-01T15:32:16.143Z,6.3
2023-05-01T15:35:16.102Z,6
2023-05-01T15:38:16.122Z,5.7
2023-05-01T15:41:18.381Z,5.4
2023-05-01T15:44:16.113Z,5.2
2023-05-01T15:47:16.430Z,5.2
2023-05-01T15:50:16.120Z,5.2
2023-05-01T15:53:16.128Z,5.5
2023-05-01T15:56:16.120Z,5.6
2023-05-01T15:59:16.122Z,5.7
2023-05-01T16:02:16.137Z,6
2023-05-01T16:05:16.127Z,6.2
2023-05-01T16:08:16.119Z,6.4
2023-05-01T16:11:16.116Z,5.9
2023-05-01T16:14:16.114Z,5.3
2023-05-01T16:17:16.137Z,5.5
2023-05-01T16:20:16.125Z,5.8
2023-05-01T16:23:16.126Z,6
2023-05-01T16:26:16.126Z,5.8
2023-05-01T16:29:16.125Z,5.8
2023-05-01T16:32:16.145Z,5.7
2023-05-01T16:35:16.140Z,5.7
2023-05-01T16:38:16.129Z,5.6
2023-05-01T16:41:16.129Z,5.5
2023-05-01T16:44:16.131Z,5.6
2023-05-01T16:47:16.134Z,5.5
2023-05-01T16:50:16.132Z,5.3
2023-05-01T16:53:16.141Z,5.3
2023-05-01T16:56:16.131Z,5.4
2023-05-01T16:59:16.136Z,5.1
2023-05-01T17:02:16.156Z,5.1
2023-05-01T17:05:16.140Z,5.1
2023-05-01T17:08:16.144Z,5.2
2023-05-01T17:11:16.145Z,4.9
2023-05-01T17:14:16.137Z,4.7
2023-05-01T17:17:16.142Z,4.5
2023-05-01T17:20:16.147Z,4.4
2023-05-01T17:23:16.156Z,4.5
2023-05-01T17:26:16.157Z,4.4
2023-05-01T17:29:16.149Z,4.6
2023-05-01T17:32:29.506Z,4.5
2023-05-01T17:35:16.156Z,4.3
2023-05-01T17:38:16.161Z,4.4
2023-05-01T17:41:16.170Z,4.6
2023-05-01T17:44:16.162Z,4.5
2023-05-01T17:47:16.167Z,4.6
2023-05-01T17:50:16.166Z,4.4
2023-05-01T17:53:16.194Z,4.3
2023-05-01T17:56:16.186Z,4.2
2023-05-01T17:59:16.177Z,4.1
2023-05-01T18:02:16.178Z,4.1
2023-05-01T18:05:16.189Z,4.2
2023-05-01T18:08:16.170Z,4.2
2023-05-01T18:11:16.170Z,4.4
2023-05-01T18:14:16.174Z,4.1
2023-05-01T18:17:16.295Z,4.2
2023-05-01T18:20:16.172Z,4.2
2023-05-01T18:23:16.165Z,4.2
2023-05-01T18:26:16.171Z,4.1
2023-05-01T18:29:16.172Z,4.2
2023-05-01T18:32:16.177Z,4.2
2023-05-01T18:35:16.177Z,4.2
2023-05-01T18:38:16.175Z,4.2
2023-05-01T18:41:16.181Z,4.2
2023-05-01T18:44:16.184Z,4.2
2023-05-01T18:47:16.192Z,4.2
2023-05-01T18:50:16.185Z,4.2
2023-05-01T18:53:16.184Z,4.2
2023-05-01T18:56:16.184Z,4.2
2023-05-01T18:59:16.185Z,4.2
2023-05-01T19:02:16.209Z,4.1
2023-05-01T19:05:16.213Z,4.3
2023-05-01T19:08:16.185Z,4.5
2023-05-01T19:11:16.201Z,4.5
2023-05-01T19:14:16.187Z,4.6
2023-05-01T19:17:16.191Z,4.6
2023-05-01T19:20:16.186Z,4.7
2023-05-01T19:23:16.187Z,4.5
2023-05-01T19:26:16.191Z,4.4
2023-05-01T19:29:16.186Z,4.6
2023-05-01T19:32:16.261Z,4.6
2023-05-01T19:35:16.195Z,4.7
2023-05-01T19:38:16.190Z,4.9
2023-05-01T19:41:16.199Z,5.1
2023-05-01T19:44:16.202Z,5.3
2023-05-01T19:47:16.202Z,5.6
2023-05-01T19:50:16.216Z,5.4
2023-05-01T19:53:16.208Z,5.5
2023-05-01T19:56:16.207Z,5.4
2023-05-01T19:59:16.217Z,5.7
2023-05-01T20:02:16.227Z,6.1
2023-05-01T20:05:16.212Z,6.4
2023-05-01T20:08:16.216Z,6.4
2023-05-01T20:11:16.212Z,6.4
2023-05-01T20:14:16.219Z,6.3
2023-05-01T20:17:16.219Z,6.1
2023-05-01T20:20:16.218Z,5.7
2023-05-01T20:23:16.227Z,5.6
2023-05-01T20:26:16.219Z,5.4
2023-05-01T20:29:16.221Z,5.3
2023-05-01T20:32:16.598Z,5.2
2023-05-01T20:35:16.228Z,5.3
2023-05-01T20:38:16.247Z,5.4
2023-05-01T20:41:16.231Z,5.4
2023-05-01T20:44:16.242Z,5.6
2023-05-01T20:47:16.236Z,5.6
2023-05-01T20:50:16.229Z,5.7
2023-05-01T20:53:16.255Z,5.9
2023-05-01T20:56:16.240Z,6
2023-05-01T20:59:16.232Z,6.1
2023-05-01T21:02:16.313Z,6.2
2023-05-01T21:05:16.254Z,6.3
2023-05-01T21:08:16.236Z,6.3
2023-05-01T21:11:16.233Z,6.4
2023-05-01T21:14:16.239Z,6.4
2023-05-01T21:17:16.239Z,6.5
2023-05-01T21:20:16.249Z,6.4
2023-05-01T21:23:16.246Z,6.5
2023-05-01T21:26:16.248Z,6.5
2023-05-01T21:29:16.253Z,6.5
2023-05-01T21:32:16.247Z,6.6
2023-05-01T21:35:18.010Z,6.7
2023-05-01T21:38:16.255Z,6.9
2023-05-01T21:41:16.273Z,6.9
2023-05-01T21:44:16.264Z,6.9
2023-05-01T21:47:16.270Z,6.9
2023-05-01T21:50:16.262Z,6.9
2023-05-01T21:53:16.272Z,6.9
2023-05-01T21:56:16.263Z,7
2023-05-01T21:59:16.265Z,7.1
2023-05-01T22:02:16.267Z,7.1
2023-05-01T22:05:16.263Z,7.3
2023-05-01T22:08:16.272Z,7.5
2023-05-01T22:11:16.291Z,7.6
2023-05-01T22:14:16.279Z,7.7
2023-05-01T22:17:16.266Z,7.7
2023-05-01T22:20:16.284Z,7.8
2023-05-01T22:23:16.275Z,7.9
2023-05-01T22:26:16.272Z,7.9
2023-05-01T22:29:16.276Z,8
2023-05-01T22:32:16.313Z,8
2023-05-01T22:35:16.291Z,7.9
2023-05-01T22:38:16.284Z,7.7
2023-05-01T22:41:16.296Z,7.5
2023-05-01T22:44:16.285Z,7.5
2023-05-01T22:47:16.311Z,7.5
2023-05-01T22:50:16.294Z,7.5
2023-05-01T22:53:16.293Z,7.5
2023-05-01T22:56:16.297Z,7.5
2023-05-01T22:59:16.293Z,7.6
2023-05-01T23:02:16.321Z,7.5
2023-05-01T23:05:16.305Z,7.5
2023-05-01T23:08:16.301Z,7.4
2023-05-01T23:11:16.310Z,7.3
2023-05-01T23:14:16.307Z,7
2023-05-01T23:17:16.312Z,6.8
2023-05-01T23:20:16.311Z,6.7
2023-05-01T23:23:16.307Z,6.6
2023-05-01T23:26:16.308Z,6.5
2023-05-01T23:29:16.344Z,6.4
2023-05-01T23:32:16.317Z,6.3
2023-05-01T23:35:16.326Z,6.2
2023-05-01T23:38:16.315Z,6.2
2023-05-01T23:41:16.331Z,6.3
2023-05-01T23:44:16.315Z,6.4
2023-05-01T23:47:16.366Z,6.5
2023-05-01T23:50:16.329Z,6.5
2023-05-01T23:53:16.331Z,6.5
2023-05-01T23:56:16.334Z,6.5
2023-05-01T23:59:16.335Z,6.5
